createdAt,value
2023-03-10T00:02:56.987Z,98900.23
2023-03-10T00:07:59.062Z,98893.14
2023-03-10T00:13:01.051Z,98886.59
2023-03-10T00:18:03.250Z,98880.76
2023-03-10T00:23:05.104Z,98871.48
2023-03-10T00:28:06.889Z,98871.16
2023-03-10T00:33:08.653Z,98864.09
2023-03-10T00:38:10.943Z,98858.70
2023-03-10T00:43:12.618Z,98854.46
2023-03-10T00:48:14.304Z,98848.23
2023-03-10T00:53:16.472Z,98837.84
2023-03-10T00:58:18.247Z,98831.71
2023-03-10T01:03:21.146Z,98825.05
2023-03-10T01:08:23.639Z,98826.78
2023-03-10T01:13:25.412Z,98815.30
2023-03-10T01:18:27.290Z,98802.00
2023-03-10T01:23:29.170Z,98796.73
2023-03-10T01:28:31.042Z,98789.79
2023-03-10T01:33:40.754Z,98784.63
2023-03-10T01:38:44.113Z,98781.39
2023-03-10T01:43:52.029Z,98774.95
2023-03-10T01:48:56.778Z,98771.28
2023-03-10T01:53:59.469Z,98759.12
2023-03-10T01:59:02.165Z,98746.86
2023-03-10T02:04:10.288Z,98734.64
2023-03-10T02:09:14.332Z,98725.95
2023-03-10T02:14:17.635Z,98723.90
2023-03-10T02:19:26.302Z,98718.39
2023-03-10T02:24:46.175Z,98708.66
2023-03-10T02:30:04.036Z,98695.08
2023-03-10T02:35:06.815Z,98686.45
2023-03-10T02:40:34.738Z,98673.88
2023-03-10T02:45:40.437Z,98666.80
2023-03-10T02:50:46.747Z,98654.55
2023-03-10T02:55:49.027Z,98651.14
2023-03-10T03:00:51.564Z,98644.41
2023-03-10T03:05:53.498Z,98636.80
2023-03-10T03:10:56.399Z,98625.92
2023-03-10T03:15:58.173Z,98612.94
2023-03-10T03:21:10.055Z,98606.83
2023-03-10T03:26:19.230Z,98605.59
2023-03-10T03:31:23.120Z,98606.64
2023-03-10T03:36:25.443Z,98592.53
2023-03-10T03:41:27.829Z,98581.95
2023-03-10T03:46:29.632Z,98568.63
2023-03-10T03:51:31.583Z,98565.20
2023-03-10T03:56:33.256Z,98558.02
2023-03-10T04:01:35.032Z,98550.01
2023-03-10T04:06:36.807Z,98541.80
2023-03-10T04:11:38.478Z,98526.85
2023-03-10T04:16:40.350Z,98512.27
2023-03-10T04:21:42.330Z,98516.41
2023-03-10T04:26:44.213Z,98498.44
2023-03-10T04:31:53.091Z,98479.94
2023-03-10T04:37:04.863Z,98481.23
2023-03-10T04:42:07.864Z,98490.79
2023-03-10T04:47:09.745Z,98469.87
2023-03-10T04:52:11.623Z,98459.08
2023-03-10T04:57:13.394Z,98450.25
2023-03-10T05:02:15.218Z,98447.88
2023-03-10T05:07:17.150Z,98442.70
2023-03-10T05:12:19.124Z,98430.11
2023-03-10T05:17:21.197Z,98423.38
2023-03-10T05:22:23.178Z,98409.81
2023-03-10T05:27:24.952Z,98395.17
2023-03-10T05:32:27.180Z,98386.69
2023-03-10T05:37:29.018Z,98379.42
2023-03-10T05:42:30.892Z,98370.14
2023-03-10T05:47:33.585Z,98364.52
2023-03-10T05:52:40.500Z,98349.52
2023-03-10T05:57:42.457Z,98339.67
2023-03-10T06:02:44.388Z,98336.50
2023-03-10T06:07:46.827Z,98330.66
2023-03-10T06:12:48.497Z,98321.66
2023-03-10T06:17:50.783Z,98316.68
2023-03-10T06:22:53.080Z,98308.44
2023-03-10T06:27:54.742Z,98297.27
2023-03-10T06:32:56.480Z,98296.13
2023-03-10T06:37:58.303Z,98290.30
2023-03-10T06:43:00.170Z,98286.34
2023-03-10T06:48:01.860Z,98279.92
2023-03-10T06:53:03.620Z,98275.43
2023-03-10T06:58:05.717Z,98269.16
2023-03-10T07:03:07.576Z,98264.63
2023-03-10T07:08:09.258Z,98266.02
2023-03-10T07:13:15.036Z,98257.10
2023-03-10T07:18:17.504Z,98257.97
2023-03-10T07:23:20.198Z,98251.83
2023-03-10T07:28:23.612Z,98246.14
2023-03-10T07:33:26.409Z,98237.73
2023-03-10T07:38:28.282Z,98235.88
2023-03-10T07:43:30.775Z,98228.14
2023-03-10T07:48:34.952Z,98219.42
2023-03-10T07:53:37.907Z,98217.64
2023-03-10T07:58:40.820Z,98211.34
2023-03-10T08:03:43.566Z,98208.04
2023-03-10T08:08:46.302Z,98204.96
2023-03-10T08:13:49.780Z,98199.38
2023-03-10T08:18:54.481Z,98191.66
2023-03-10T08:23:56.512Z,98181.50
2023-03-10T08:28:59.136Z,98171.67
2023-03-10T08:34:01.108Z,98157.23
2023-03-10T08:39:05.422Z,98147.94
2023-03-10T08:44:07.324Z,98134.38
2023-03-10T08:49:09.839Z,98121.33
2023-03-10T08:54:14.152Z,98112.46
2023-03-10T08:59:16.162Z,98104.42
2023-03-10T09:04:18.219Z,98097.77
2023-03-10T09:09:19.883Z,98089.08
2023-03-10T09:14:22.271Z,98082.29
2023-03-10T09:19:24.051Z,98080.85
2023-03-10T09:24:26.636Z,98077.11
2023-03-10T09:29:42.084Z,98072.73
2023-03-10T09:34:46.875Z,98063.30
2023-03-10T09:39:48.866Z,98066.04
2023-03-10T09:44:56.673Z,98060.48
2023-03-10T09:50:11.288Z,98044.64
2023-03-10T09:55:26.237Z,98038.15
2023-03-10T10:00:39.113Z,98031.63
2023-03-10T10:05:42.353Z,98027.75
2023-03-10T10:10:50.846Z,98026.19
2023-03-10T10:16:18.360Z,98020.34
2023-03-10T10:21:44.932Z,98010.79
2023-03-10T10:26:46.718Z,98004.88
2023-03-10T10:32:05.584Z,97998.48
2023-03-10T10:37:26.718Z,97992.48
2023-03-10T10:42:33.818Z,97984.55
2023-03-10T10:47:46.341Z,97977.36
2023-03-10T10:52:52.471Z,97969.41
2023-03-10T10:58:01.632Z,97962.81
2023-03-10T11:03:20.231Z,97958.73
2023-03-10T11:08:37.368Z,97947.68
2023-03-10T11:13:51.634Z,97945.58
2023-03-10T11:19:21.784Z,97937.48
2023-03-10T11:24:36.489Z,97929.29
2023-03-10T11:30:10.889Z,97920.50
2023-03-10T11:35:19.221Z,97911.30
2023-03-10T11:40:24.283Z,97910.87
2023-03-10T11:45:55.621Z,97901.55
2023-03-10T11:51:03.961Z,97893.63
2023-03-10T11:56:09.323Z,97885.02
2023-03-10T12:01:21.131Z,97884.48
2023-03-10T12:06:53.729Z,97884.63
2023-03-10T12:11:56.783Z,97882.69
2023-03-10T12:17:00.344Z,97883.77
2023-03-10T12:22:20.655Z,97887.11
2023-03-10T12:27:22.432Z,97882.38
2023-03-10T12:32:46.813Z,97879.08
2023-03-10T12:37:48.810Z,97869.95
2023-03-10T12:42:50.481Z,97873.13
2023-03-10T12:48:00.352Z,97865.65
2023-03-10T12:53:07.171Z,97858.41
2023-03-10T12:58:22.547Z,97851.77
2023-03-10T13:03:30.812Z,97850.39
2023-03-10T13:09:10.743Z,97860.52
2023-03-10T13:14:16.223Z,97867.18
2023-03-10T13:19:23.930Z,97861.48
2023-03-10T13:24:28.591Z,97865.73
2023-03-10T13:29:30.500Z,97863.06
2023-03-10T13:34:33.628Z,97867.50
2023-03-10T13:39:36.127Z,97867.30
2023-03-10T13:44:40.564Z,97869.56
2023-03-10T13:49:49.710Z,97869.86
2023-03-10T13:54:52.521Z,97875.69
2023-03-10T14:00:00.229Z,97872.97
2023-03-10T14:05:07.471Z,97864.58
2023-03-10T14:10:11.131Z,97856.02
2023-03-10T14:15:19.775Z,97850.63
2023-03-10T14:20:30.968Z,97848.61
2023-03-10T14:25:35.103Z,97847.77
2023-03-10T14:30:38.645Z,97848.58
2023-03-10T14:35:41.723Z,97852.35
2023-03-10T14:40:54.914Z,97856.14
2023-03-10T14:46:00.738Z,97850.55
2023-03-10T14:51:03.290Z,97856.59
2023-03-10T14:56:06.029Z,97859.58
2023-03-10T15:01:08.059Z,97863.05
2023-03-10T15:06:13.052Z,97865.63
2023-03-10T15:11:24.019Z,97864.48
2023-03-10T15:16:32.888Z,97860.05
2023-03-10T15:21:34.758Z,97856.56
2023-03-10T15:26:37.143Z,97848.48
2023-03-10T15:31:39.241Z,97857.14
2023-03-10T15:36:41.328Z,97852.05
2023-03-10T15:41:43.388Z,97852.98
2023-03-10T15:46:46.669Z,97852.73
2023-03-10T15:51:49.301Z,97849.30
2023-03-10T15:56:51.782Z,97845.28
2023-03-10T16:01:54.357Z,97839.32
2023-03-10T16:06:56.975Z,97840.06
2023-03-10T16:11:58.944Z,97847.80
2023-03-10T16:17:01.436Z,97855.07
2023-03-10T16:22:04.774Z,97845.41
2023-03-10T16:27:08.363Z,97843.48
2023-03-10T16:32:11.830Z,97844.38
2023-03-10T16:37:13.977Z,97839.80
2023-03-10T16:42:16.045Z,97839.27
2023-03-10T16:47:18.114Z,97836.20
2023-03-10T16:52:20.925Z,97831.54
2023-03-10T16:57:23.208Z,97841.54
2023-03-10T17:02:25.510Z,97857.73
2023-03-10T17:07:46.354Z,97854.71
2023-03-10T17:14:06.328Z,97845.23
2023-03-10T17:19:21.197Z,97844.20
2023-03-10T17:24:23.403Z,97854.08
2023-03-10T17:29:27.422Z,97853.46
2023-03-10T17:34:30.423Z,97841.92
2023-03-10T17:39:34.405Z,97836.15
2023-03-10T17:44:37.453Z,97834.92
2023-03-10T17:49:40.887Z,97830.52
2023-03-10T17:54:42.862Z,97833.92
2023-03-10T17:59:45.034Z,97836.11
2023-03-10T18:04:48.111Z,97836.60
2023-03-10T18:09:50.017Z,97834.70
2023-03-10T18:14:52.202Z,97832.10
2023-03-10T18:19:55.615Z,97829.50
2023-03-10T18:25:01.081Z,97819.67
2023-03-10T18:30:09.067Z,97812.61
2023-03-10T18:35:12.513Z,97813.65
2023-03-10T18:40:17.221Z,97811.44
2023-03-10T18:45:20.476Z,97805.36
2023-03-10T18:50:24.211Z,97802.16
2023-03-10T18:55:27.490Z,97801.20
2023-03-10T19:00:31.625Z,97791.73
2023-03-10T19:05:35.548Z,97791.30
2023-03-10T19:10:41.339Z,97795.64
2023-03-10T19:15:44.123Z,97796.06
2023-03-10T19:20:47.013Z,97789.10
2023-03-10T19:25:50.737Z,97788.21
2023-03-10T19:30:53.364Z,97773.29
2023-03-10T19:36:03.560Z,97759.31
2023-03-10T19:41:10.288Z,97754.48
2023-03-10T19:46:14.174Z,97753.02
2023-03-10T19:51:23.671Z,97749.63
2023-03-10T19:56:27.526Z,97743.98
2023-03-10T20:01:30.819Z,97744.13
2023-03-10T20:06:33.391Z,97743.44
2023-03-10T20:11:36.722Z,97740.22
2023-03-10T20:16:39.486Z,97736.99
2023-03-10T20:21:41.898Z,97736.15
2023-03-10T20:26:44.383Z,97726.16
2023-03-10T20:31:47.143Z,97716.05
2023-03-10T20:36:49.887Z,97714.87
2023-03-10T20:41:52.585Z,97708.77
2023-03-10T20:46:55.074Z,97700.63
2023-03-10T20:51:57.640Z,97689.50
2023-03-10T20:57:00.965Z,97690.98
2023-03-10T21:02:05.318Z,97683.19
2023-03-10T21:07:07.584Z,97686.85
2023-03-10T21:12:09.561Z,97698.41
2023-03-10T21:17:11.758Z,97690.31
2023-03-10T21:22:13.729Z,97683.80
2023-03-10T21:27:16.327Z,97676.77
2023-03-10T21:32:19.138Z,97664.83
2023-03-10T21:37:22.180Z,97666.55
2023-03-10T21:42:24.835Z,97661.59
2023-03-10T21:47:27.115Z,97650.73
2023-03-10T21:52:29.992Z,97640.94
2023-03-10T21:57:31.790Z,97629.75
2023-03-10T22:02:35.521Z,97619.23
2023-03-10T22:07:39.174Z,97621.63
2023-03-10T22:12:41.227Z,97634.59
2023-03-10T22:17:42.988Z,97626.29
2023-03-10T22:22:45.375Z,97608.19
2023-03-10T22:27:54.634Z,97602.37
2023-03-10T22:32:56.902Z,97602.04
2023-03-10T22:37:58.887Z,97587.22
2023-03-10T22:43:00.653Z,97580.75
2023-03-10T22:48:05.571Z,97577.42
2023-03-10T22:53:16.798Z,97569.71
2023-03-10T22:58:18.676Z,97560.42
2023-03-10T23:03:20.605Z,97553.38
2023-03-10T23:08:22.531Z,97552.48
2023-03-10T23:13:24.736Z,97544.60
2023-03-10T23:18:26.391Z,97534.55
2023-03-10T23:23:28.168Z,97535.30
2023-03-10T23:28:29.838Z,97528.52
2023-03-10T23:33:31.823Z,97527.73
2023-03-10T23:38:35.495Z,97527.19
2023-03-10T23:43:37.213Z,97534.48
2023-03-10T23:48:38.987Z,97523.41
2023-03-10T23:53:43.226Z,97520.33
2023-03-10T23:58:46.229Z,97519.77
